createdAt,value
2024-02-12T00:01:42.004Z,5.03
2024-02-12T00:04:08.625Z,4.90
2024-02-12T00:06:36.394Z,5.13
2024-02-12T00:09:06.554Z,5.30
2024-02-12T00:11:33.217Z,5.50
2024-02-12T00:14:01.200Z,5.93
2024-02-12T00:16:27.672Z,5.50
2024-02-12T00:18:54.180Z,5.40
2024-02-12T00:21:20.758Z,6.13
2024-02-12T00:23:47.791Z,6.18
2024-02-12T00:26:15.294Z,5.70
2024-02-12T00:28:42.601Z,6.40
2024-02-12T00:31:13.635Z,6.30
2024-02-12T00:33:41.642Z,6.65
2024-02-12T00:36:10.478Z,6.88
2024-02-12T00:38:40.693Z,6.63
2024-02-12T00:41:15.726Z,6.55
2024-02-12T00:43:43.433Z,5.82
2024-02-12T00:46:10.303Z,6.20
2024-02-12T00:48:37.708Z,5.43
2024-02-12T00:51:04.322Z,5.63
2024-02-12T00:53:30.942Z,5.35
2024-02-12T00:55:58.796Z,5.53
2024-02-12T00:58:25.345Z,4.88
2024-02-12T01:00:51.729Z,4.53
2024-02-12T01:03:18.338Z,4.53
2024-02-12T01:05:45.111Z,4.97
2024-02-12T01:08:11.637Z,5.00
2024-02-12T01:10:38.108Z,4.90
2024-02-12T01:13:04.560Z,4.65
2024-02-12T01:15:31.946Z,4.90
2024-02-12T01:18:09.472Z,4.78
2024-02-12T01:20:37.785Z,4.22
2024-02-12T01:23:04.608Z,5.57
2024-02-12T01:25:31.885Z,4.97
2024-02-12T01:28:01.244Z,4.65
2024-02-12T01:30:28.088Z,4.50
2024-02-12T01:32:55.264Z,5.25
2024-02-12T01:35:21.937Z,5.00
2024-02-12T01:37:48.366Z,4.47
2024-02-12T01:40:15.016Z,4.00
2024-02-12T01:42:41.548Z,4.20
2024-02-12T01:45:16.941Z,3.72
2024-02-12T01:47:45.311Z,3.60
2024-02-12T01:50:13.450Z,4.40
2024-02-12T01:52:50.847Z,3.80
2024-02-12T01:55:19.597Z,4.10
2024-02-12T01:57:51.430Z,4.03
2024-02-12T02:00:18.906Z,4.20
2024-02-12T02:02:46.041Z,4.30
2024-02-12T02:05:17.165Z,4.05
2024-02-12T02:07:46.055Z,3.97
2024-02-12T02:10:16.065Z,4.28
2024-02-12T02:12:43.830Z,3.55
2024-02-12T02:15:10.804Z,4.03
2024-02-12T02:17:37.493Z,3.90
2024-02-12T02:20:08.238Z,4.00
2024-02-12T02:22:35.492Z,4.22
2024-02-12T02:25:01.898Z,4.00
2024-02-12T02:27:28.779Z,4.35
2024-02-12T02:29:55.210Z,4.68
2024-02-12T02:32:23.006Z,4.40
2024-02-12T02:34:49.608Z,3.72
2024-02-12T02:37:16.856Z,4.55
2024-02-12T02:39:43.246Z,4.38
2024-02-12T02:42:12.732Z,4.30
2024-02-12T02:44:40.201Z,4.93
2024-02-12T02:47:07.092Z,5.03
2024-02-12T02:49:33.768Z,4.72
2024-02-12T02:52:00.247Z,5.68
2024-02-12T02:54:26.621Z,4.80
2024-02-12T02:56:53.403Z,5.05
2024-02-12T02:59:20.056Z,5.78
2024-02-12T03:01:46.595Z,4.80
2024-02-12T03:04:15.444Z,5.30
2024-02-12T03:06:42.266Z,5.53
2024-02-12T03:09:08.823Z,5.43
2024-02-12T03:11:38.822Z,4.97
2024-02-12T03:14:05.456Z,4.82
2024-02-12T03:16:33.730Z,4.65
2024-02-12T03:19:01.193Z,4.85
2024-02-12T03:21:27.770Z,4.03
2024-02-12T03:23:58.262Z,4.43
2024-02-12T03:26:24.710Z,4.38
2024-02-12T03:28:52.171Z,4.35
2024-02-12T03:31:18.605Z,4.28
2024-02-12T03:33:50.207Z,4.22
2024-02-12T03:36:17.126Z,4.20
2024-02-12T03:38:43.590Z,4.10
2024-02-12T03:41:18.043Z,4.00
2024-02-12T03:43:44.496Z,4.00
2024-02-12T03:46:19.190Z,3.88
2024-02-12T03:49:04.868Z,3.95
2024-02-12T03:51:50.336Z,4.07
2024-02-12T03:57:23.612Z,4.18
2024-02-12T03:59:52.711Z,3.50
2024-02-12T04:02:20.079Z,3.50
2024-02-12T04:04:46.744Z,4.43
2024-02-12T04:07:14.395Z,4.13
2024-02-12T04:09:43.051Z,3.58
2024-02-12T04:12:14.444Z,3.17
2024-02-12T04:14:43.311Z,3.60
2024-02-12T04:17:10.977Z,3.35
2024-02-12T04:19:38.078Z,3.38
2024-02-12T04:22:10.797Z,3.67
2024-02-12T04:24:44.517Z,3.35
2024-02-12T04:27:11.538Z,3.58
2024-02-12T04:29:41.233Z,3.33
2024-02-12T04:32:13.670Z,3.53
2024-02-12T04:34:41.780Z,3.47
2024-02-12T04:37:10.770Z,3.30
2024-02-12T04:39:37.945Z,4.78
2024-02-12T04:42:05.304Z,3.90
2024-02-12T04:44:32.109Z,3.13
2024-02-12T04:47:01.909Z,3.53
2024-02-12T04:49:29.022Z,3.28
2024-02-12T04:51:55.714Z,3.25
2024-02-12T04:54:24.333Z,3.30
2024-02-12T04:56:50.989Z,3.45
2024-02-12T04:59:19.579Z,3.80
2024-02-12T05:01:46.605Z,3.80
2024-02-12T05:04:13.196Z,3.40
2024-02-12T05:06:39.707Z,3.50
2024-02-12T05:09:06.795Z,4.03
2024-02-12T05:11:33.556Z,3.85
2024-02-12T05:14:00.193Z,3.38
2024-02-12T05:16:33.624Z,3.95
2024-02-12T05:19:19.775Z,4.05
2024-02-12T05:22:05.080Z,4.22
2024-02-12T05:24:32.048Z,3.55
2024-02-12T05:26:59.102Z,3.85
2024-02-12T05:29:26.544Z,3.95
2024-02-12T05:31:53.224Z,4.45
2024-02-12T05:34:24.541Z,4.00
2024-02-12T05:36:56.078Z,4.07
2024-02-12T05:39:23.161Z,4.32
2024-02-12T05:41:50.062Z,4.35
2024-02-12T05:44:17.221Z,5.05
2024-02-12T05:46:43.694Z,4.07
2024-02-12T05:49:13.985Z,3.85
2024-02-12T05:51:40.600Z,4.75
2024-02-12T05:54:07.161Z,4.07
2024-02-12T05:56:35.383Z,4.28
2024-02-12T05:59:01.818Z,5.15
2024-02-12T06:01:28.284Z,5.20
2024-02-12T06:03:54.804Z,4.80
2024-02-12T06:06:22.080Z,5.13
2024-02-12T06:08:49.468Z,4.03
2024-02-12T06:11:16.069Z,4.05
2024-02-12T06:13:42.503Z,4.40
2024-02-12T06:16:08.963Z,5.10
2024-02-12T06:18:35.442Z,4.18
2024-02-12T06:21:01.896Z,4.25
2024-02-12T06:23:28.561Z,4.13
2024-02-12T06:25:55.139Z,4.00
2024-02-12T06:28:21.547Z,5.00
2024-02-12T06:30:48.011Z,4.18
2024-02-12T06:33:14.739Z,4.03
2024-02-12T06:35:41.194Z,4.00
2024-02-12T06:38:07.766Z,4.78
2024-02-12T06:40:34.323Z,4.25
2024-02-12T06:43:02.858Z,4.50
2024-02-12T06:45:29.368Z,5.13
2024-02-12T06:47:56.557Z,4.70
2024-02-12T06:50:24.335Z,4.88
2024-02-12T06:52:50.946Z,5.80
2024-02-12T06:55:17.473Z,6.13
2024-02-12T06:57:46.503Z,6.15
2024-02-12T07:00:17.038Z,6.43
2024-02-12T07:02:47.938Z,6.10
2024-02-12T07:05:18.881Z,6.10
2024-02-12T07:07:46.946Z,5.75
2024-02-12T07:10:13.752Z,5.18
2024-02-12T07:12:40.398Z,5.88
2024-02-12T07:15:08.277Z,5.38
2024-02-12T07:17:35.772Z,5.57
2024-02-12T07:20:10.467Z,6.78
2024-02-12T07:22:39.818Z,5.40
2024-02-12T07:25:06.773Z,5.40
2024-02-12T07:27:33.227Z,5.05
2024-02-12T07:30:00.085Z,5.35
2024-02-12T07:32:26.586Z,5.10
2024-02-12T07:34:53.654Z,5.68
2024-02-12T07:37:20.329Z,5.30
2024-02-12T07:39:46.765Z,4.78
2024-02-12T07:42:13.260Z,5.30
2024-02-12T07:44:40.532Z,5.43
2024-02-12T07:47:07.228Z,4.90
2024-02-12T07:49:34.319Z,4.38
2024-02-12T07:52:03.629Z,5.43
2024-02-12T07:54:31.336Z,4.72
2024-02-12T07:56:58.586Z,5.40
2024-02-12T07:59:25.230Z,5.18
2024-02-12T08:01:53.021Z,5.00
2024-02-12T08:04:22.761Z,5.25
2024-02-12T08:06:49.295Z,5.53
2024-02-12T08:09:19.228Z,5.97
2024-02-12T08:11:46.645Z,5.20
2024-02-12T08:14:13.577Z,5.00
2024-02-12T08:16:45.046Z,5.57
2024-02-12T08:19:11.889Z,6.22
2024-02-12T08:21:38.401Z,5.68
2024-02-12T08:24:05.228Z,5.45
2024-02-12T08:26:32.188Z,5.03
2024-02-12T08:28:59.753Z,5.15
2024-02-12T08:31:26.432Z,5.70
2024-02-12T08:33:55.328Z,6.15
2024-02-12T08:36:22.060Z,6.07
2024-02-12T08:38:48.608Z,6.15
2024-02-12T08:41:25.806Z,5.35
2024-02-12T08:43:54.545Z,6.53
2024-02-12T08:46:21.064Z,6.53
2024-02-12T08:48:47.554Z,6.40
2024-02-12T08:51:15.003Z,6.88
2024-02-12T08:53:45.063Z,6.40
2024-02-12T08:56:15.612Z,6.97
2024-02-12T08:58:43.750Z,8.10
2024-02-12T09:01:11.233Z,7.45
2024-02-12T09:03:42.097Z,8.52
2024-02-12T09:06:17.951Z,7.97
2024-02-12T09:08:45.632Z,7.80
2024-02-12T09:11:13.670Z,8.65
2024-02-12T09:13:41.459Z,7.78
2024-02-12T09:16:09.336Z,8.35
2024-02-12T09:18:36.924Z,8.70
2024-02-12T09:21:03.915Z,9.15
2024-02-12T09:23:31.227Z,8.82
2024-02-12T09:25:57.858Z,10.63
2024-02-12T09:28:28.676Z,9.00
2024-02-12T09:30:55.996Z,8.52
2024-02-12T09:33:22.619Z,9.13
2024-02-12T09:35:49.271Z,8.70
2024-02-12T09:38:17.022Z,9.18
2024-02-12T09:40:44.086Z,8.98
2024-02-12T09:43:12.499Z,8.38
2024-02-12T09:45:45.991Z,9.13
2024-02-12T09:48:13.884Z,9.25
2024-02-12T09:50:47.815Z,9.98
2024-02-12T09:53:17.110Z,9.30
2024-02-12T09:55:50.083Z,10.43
2024-02-12T09:58:17.237Z,9.10
2024-02-12T10:00:45.244Z,10.75
2024-02-12T10:03:14.969Z,10.50
2024-02-12T10:05:43.364Z,10.48
2024-02-12T10:08:24.205Z,9.82
2024-02-12T10:10:53.427Z,10.68
2024-02-12T10:13:20.947Z,11.07
2024-02-12T10:15:48.549Z,11.95
2024-02-12T10:18:18.010Z,10.55
2024-02-12T10:20:44.949Z,11.20
2024-02-12T10:23:16.439Z,11.27
2024-02-12T10:25:49.742Z,11.95
2024-02-12T10:28:17.125Z,12.55
2024-02-12T10:30:44.093Z,12.43
2024-02-12T10:33:12.087Z,12.70
2024-02-12T10:35:40.753Z,12.30
2024-02-12T10:38:08.204Z,13.68
2024-02-12T10:41:02.974Z,11.55
2024-02-12T10:43:31.570Z,12.13
2024-02-12T10:45:59.179Z,11.95
2024-02-12T10:48:26.204Z,13.27
2024-02-12T10:50:55.933Z,14.18
2024-02-12T10:53:24.666Z,11.77
2024-02-12T10:55:51.421Z,11.70
2024-02-12T10:58:19.276Z,11.20
2024-02-12T11:01:03.925Z,13.57
2024-02-12T11:03:50.305Z,10.00
2024-02-12T11:06:18.560Z,10.77
2024-02-12T11:08:51.026Z,9.60
2024-02-12T11:11:24.321Z,9.95
2024-02-12T11:13:57.849Z,9.20
2024-02-12T11:16:24.460Z,9.75
2024-02-12T11:18:55.633Z,10.45
2024-02-12T11:21:24.187Z,10.27
2024-02-12T11:23:53.069Z,9.23
2024-02-12T11:26:22.050Z,8.18
2024-02-12T11:28:56.073Z,8.43
2024-02-12T11:31:25.334Z,9.60
2024-02-12T11:33:52.524Z,8.90
2024-02-12T11:36:19.087Z,7.57
2024-02-12T11:38:48.426Z,8.32
2024-02-12T11:41:16.668Z,7.75
2024-02-12T11:43:43.998Z,6.97
2024-02-12T11:46:17.028Z,6.80
2024-02-12T11:48:43.971Z,7.05
2024-02-12T11:51:10.573Z,7.20
2024-02-12T11:53:42.876Z,7.15
2024-02-12T11:56:09.494Z,6.88
2024-02-12T11:58:36.076Z,6.47
2024-02-12T12:01:02.672Z,6.22
2024-02-12T12:03:29.416Z,5.65
2024-02-12T12:05:56.344Z,5.50
2024-02-12T12:08:29.225Z,5.30
2024-02-12T12:11:05.032Z,6.13
2024-02-12T12:13:32.525Z,5.88
2024-02-12T12:15:58.980Z,5.15
2024-02-12T12:18:26.149Z,6.00
2024-02-12T12:20:56.256Z,5.80
2024-02-12T12:23:23.330Z,6.38
2024-02-12T12:25:53.509Z,7.63
2024-02-12T12:28:20.074Z,7.68
2024-02-12T12:30:46.533Z,5.93
2024-02-12T12:33:13.064Z,8.52
2024-02-12T12:35:40.717Z,6.65
2024-02-12T12:38:11.230Z,6.15
2024-02-12T12:40:37.756Z,5.93
2024-02-12T12:43:05.286Z,6.40
2024-02-12T12:45:32.579Z,5.97
2024-02-12T12:47:59.089Z,4.88
2024-02-12T12:50:26.106Z,3.58
2024-02-12T12:52:52.552Z,3.05
2024-02-12T12:55:19.150Z,2.70
2024-02-12T12:57:45.841Z,2.83
2024-02-12T13:00:29.871Z,2.50
2024-02-12T13:02:59.330Z,2.50
2024-02-12T13:05:26.332Z,2.78
2024-02-12T13:08:17.747Z,3.25
2024-02-12T13:10:47.431Z,2.92
2024-02-12T13:13:16.394Z,2.90
2024-02-12T13:15:47.546Z,2.90
2024-02-12T13:18:18.878Z,2.60
2024-02-12T13:20:47.453Z,2.03
2024-02-12T13:23:15.000Z,3.35
2024-02-12T13:25:41.665Z,2.83
2024-02-12T13:28:12.572Z,3.20
2024-02-12T13:30:39.496Z,2.40
2024-02-12T13:33:08.781Z,2.88
2024-02-12T13:35:38.856Z,2.63
2024-02-12T13:38:06.165Z,3.15
2024-02-12T13:40:33.904Z,4.30
2024-02-12T13:43:05.274Z,3.38
2024-02-12T13:45:32.885Z,3.90
2024-02-12T13:47:59.455Z,4.00
2024-02-12T13:50:27.460Z,3.83
2024-02-12T13:52:54.165Z,3.85
2024-02-12T13:55:21.763Z,3.95
2024-02-12T13:57:50.068Z,4.35
2024-02-12T14:00:42.908Z,4.45
2024-02-12T14:03:06.890Z,4.70
2024-02-12T14:05:33.844Z,4.50
2024-02-12T14:08:00.897Z,4.63
2024-02-12T14:10:27.842Z,4.78
2024-02-12T14:12:55.102Z,4.28
2024-02-12T14:16:01.749Z,4.18
2024-02-12T14:18:10.459Z,5.10
2024-02-12T14:20:37.414Z,5.10
2024-02-12T14:23:06.604Z,4.97
2024-02-12T14:25:35.146Z,4.60
2024-02-12T14:28:03.346Z,4.40
2024-02-12T14:30:30.101Z,5.53
2024-02-12T14:32:57.215Z,4.82
2024-02-12T14:35:25.684Z,5.10
2024-02-12T14:37:54.397Z,5.55
2024-02-12T14:40:21.696Z,4.88
2024-02-12T14:42:50.859Z,5.15
2024-02-12T14:45:17.614Z,4.30
2024-02-12T14:47:45.735Z,5.47
2024-02-12T14:50:19.501Z,4.82
2024-02-12T14:52:46.340Z,4.72
2024-02-12T14:55:12.916Z,5.28
2024-02-12T14:57:40.581Z,5.28
2024-02-12T15:00:14.742Z,5.07
2024-02-12T15:02:45.422Z,4.50
2024-02-12T15:05:16.411Z,3.97
2024-02-12T15:07:47.653Z,4.28
2024-02-12T15:10:22.288Z,4.60
2024-02-12T15:12:49.334Z,5.25
2024-02-12T15:15:20.206Z,5.22
2024-02-12T15:17:55.031Z,5.35
2024-02-12T15:20:22.833Z,9.05
2024-02-12T15:22:51.209Z,5.20
2024-02-12T15:25:20.548Z,5.88
2024-02-12T15:27:48.506Z,5.60
2024-02-12T15:30:16.665Z,4.75
2024-02-12T15:32:43.460Z,4.43
2024-02-12T15:35:15.805Z,4.82
2024-02-12T15:37:45.434Z,5.90
2024-02-12T15:40:21.936Z,4.82
2024-02-12T15:42:51.404Z,4.35
2024-02-12T15:45:19.695Z,4.20
2024-02-12T15:47:47.716Z,5.00
2024-02-12T15:50:16.151Z,5.10
2024-02-12T15:52:45.496Z,4.85
2024-02-12T15:55:12.305Z,4.43
2024-02-12T15:57:39.436Z,4.65
2024-02-12T16:00:13.661Z,5.07
2024-02-12T16:02:40.557Z,5.20
2024-02-12T16:05:45.997Z,4.55
2024-02-12T16:08:14.261Z,5.07
2024-02-12T16:10:41.428Z,4.47
2024-02-12T16:13:09.756Z,4.50
2024-02-12T16:15:39.053Z,4.78
2024-02-12T16:18:06.092Z,5.32
2024-02-12T16:20:32.790Z,5.47
2024-02-12T16:22:59.263Z,5.25
2024-02-12T16:25:27.699Z,5.22
2024-02-12T16:27:54.845Z,5.30
2024-02-12T16:30:21.210Z,5.28
2024-02-12T16:32:49.125Z,5.80
2024-02-12T16:35:19.282Z,5.10
2024-02-12T16:37:47.953Z,5.25
2024-02-12T16:40:14.564Z,5.10
2024-02-12T16:42:43.226Z,5.65
2024-02-12T16:45:11.012Z,4.97
2024-02-12T16:47:40.919Z,5.25
2024-02-12T16:50:09.106Z,5.68
2024-02-12T16:52:36.577Z,4.72
2024-02-12T16:55:04.438Z,5.63
2024-02-12T16:57:31.174Z,5.07
2024-02-12T16:59:58.430Z,5.47
2024-02-12T17:02:27.161Z,5.25
2024-02-12T17:04:55.940Z,5.72
2024-02-12T17:07:24.899Z,6.40
2024-02-12T17:09:51.456Z,6.22
2024-02-12T17:12:20.151Z,6.75
2024-02-12T17:14:47.180Z,5.90
2024-02-12T17:17:15.117Z,5.80
2024-02-12T17:19:42.067Z,6.80
2024-02-12T17:22:10.773Z,6.40
2024-02-12T17:24:37.346Z,6.47
2024-02-12T17:27:04.891Z,6.53
2024-02-12T17:29:31.459Z,7.70
2024-02-12T17:31:58.650Z,7.05
2024-02-12T17:34:26.773Z,7.68
2024-02-12T17:36:53.411Z,7.85
2024-02-12T17:39:20.371Z,7.35
2024-02-12T17:41:46.989Z,7.32
2024-02-12T17:44:14.889Z,8.27
2024-02-12T17:46:41.783Z,8.18
2024-02-12T17:49:08.768Z,8.57
2024-02-12T17:51:35.387Z,8.13
2024-02-12T17:54:01.847Z,7.93
2024-02-12T17:56:28.423Z,8.95
2024-02-12T17:58:57.876Z,8.52
2024-02-12T18:01:26.519Z,9.02
2024-02-12T18:03:54.610Z,8.98
2024-02-12T18:06:22.421Z,8.55
2024-02-12T18:08:49.649Z,8.85
2024-02-12T18:11:16.262Z,9.40
2024-02-12T18:13:42.769Z,10.60
2024-02-12T18:16:09.672Z,9.95
2024-02-12T18:18:37.317Z,10.98
2024-02-12T18:21:04.529Z,9.88
2024-02-12T18:23:31.465Z,10.07
2024-02-12T18:26:00.875Z,10.32
2024-02-12T18:28:27.670Z,11.25
2024-02-12T18:30:54.214Z,12.13
2024-02-12T18:33:20.831Z,11.15
2024-02-12T18:35:48.186Z,11.38
2024-02-12T18:38:14.792Z,11.07
2024-02-12T18:40:41.898Z,12.02
2024-02-12T18:43:08.440Z,12.68
2024-02-12T18:45:35.228Z,12.00
2024-02-12T18:48:02.681Z,12.02
2024-02-12T18:50:30.139Z,13.15
2024-02-12T18:52:56.854Z,12.73
2024-02-12T18:55:23.377Z,13.27
2024-02-12T18:57:49.900Z,12.73
2024-02-12T19:00:17.114Z,12.93
2024-02-12T19:02:44.595Z,13.30
2024-02-12T19:05:11.542Z,12.63
2024-02-12T19:07:38.899Z,14.52
2024-02-12T19:10:07.049Z,14.27
2024-02-12T19:12:37.183Z,14.88
2024-02-12T19:15:04.466Z,12.65
2024-02-12T19:17:31.057Z,12.38
2024-02-12T19:19:57.572Z,12.57
2024-02-12T19:22:24.142Z,11.95
2024-02-12T19:24:50.664Z,13.48
2024-02-12T19:27:17.983Z,12.60
2024-02-12T19:29:46.087Z,13.07
2024-02-12T19:32:13.460Z,12.85
2024-02-12T19:34:40.177Z,13.57
2024-02-12T19:37:06.828Z,14.38
2024-02-12T19:39:36.391Z,16.25
2024-02-12T19:42:05.397Z,14.38
2024-02-12T19:44:32.049Z,14.68
2024-02-12T19:46:59.432Z,14.88
2024-02-12T19:49:25.901Z,13.55
2024-02-12T19:51:52.344Z,12.50
2024-02-12T19:54:20.313Z,14.60
2024-02-12T19:56:46.898Z,14.80
2024-02-12T19:59:13.538Z,13.50
2024-02-12T20:01:40.494Z,15.45
2024-02-12T20:04:08.122Z,15.05
2024-02-12T20:06:34.814Z,13.93
2024-02-12T20:09:01.994Z,14.65
2024-02-12T20:11:30.021Z,14.77
2024-02-12T20:13:56.617Z,13.82
2024-02-12T20:16:23.240Z,14.25
2024-02-12T20:18:50.985Z,16.05
2024-02-12T20:21:17.637Z,13.00
2024-02-12T20:23:44.178Z,13.95
2024-02-12T20:26:10.683Z,13.55
2024-02-12T20:28:37.245Z,13.40
2024-02-12T20:31:03.759Z,14.30
2024-02-12T20:33:33.339Z,13.18
2024-02-12T20:36:01.227Z,13.82
2024-02-12T20:38:27.676Z,12.98
2024-02-12T20:40:54.156Z,14.32
2024-02-12T20:43:20.672Z,13.90
2024-02-12T20:45:47.307Z,13.63
2024-02-12T20:48:14.053Z,12.27
2024-02-12T20:50:41.531Z,12.82
2024-02-12T20:53:09.394Z,12.80
2024-02-12T20:55:36.939Z,11.25
2024-02-12T20:58:04.978Z,12.07
2024-02-12T21:00:31.718Z,11.07
2024-02-12T21:02:58.295Z,13.95
2024-02-12T21:05:24.880Z,12.88
2024-02-12T21:07:52.277Z,13.38
2024-02-12T21:10:18.741Z,12.30
2024-02-12T21:12:45.744Z,12.82
2024-02-12T21:15:12.756Z,12.98
2024-02-12T21:17:39.458Z,13.80
2024-02-12T21:20:07.908Z,15.02
2024-02-12T21:22:34.726Z,13.07
2024-02-12T21:25:02.348Z,13.68
2024-02-12T21:27:28.811Z,12.13
2024-02-12T21:29:55.298Z,11.52
2024-02-12T21:32:23.071Z,12.68
2024-02-12T21:34:49.690Z,13.48
2024-02-12T21:37:18.568Z,12.35
2024-02-12T21:39:49.254Z,11.82
2024-02-12T21:42:25.549Z,11.82
2024-02-12T21:44:54.532Z,11.70
2024-02-12T21:47:22.169Z,11.75
2024-02-12T21:49:48.958Z,12.32
2024-02-12T21:52:17.334Z,12.70
2024-02-12T21:54:47.598Z,11.85
2024-02-12T21:57:14.066Z,9.88
2024-02-12T21:59:41.049Z,12.18
2024-02-12T22:02:09.203Z,10.63
2024-02-12T22:04:36.706Z,10.55
2024-02-12T22:07:03.813Z,12.13
2024-02-12T22:09:30.454Z,10.73
2024-02-12T22:11:57.397Z,9.93
2024-02-12T22:14:23.992Z,10.98
2024-02-12T22:16:50.533Z,10.55
2024-02-12T22:19:17.360Z,11.50
2024-02-12T22:21:44.554Z,10.02
2024-02-12T22:24:11.075Z,10.50
2024-02-12T22:26:37.846Z,10.00
2024-02-12T22:29:04.355Z,9.70
2024-02-12T22:31:31.523Z,10.07
2024-02-12T22:33:58.271Z,9.50
2024-02-12T22:36:24.795Z,9.45
2024-02-12T22:38:51.329Z,8.65
2024-02-12T22:41:18.028Z,8.45
2024-02-12T22:43:44.544Z,9.77
2024-02-12T22:46:10.948Z,9.60
2024-02-12T22:48:40.436Z,9.05
2024-02-12T22:51:06.945Z,9.85
2024-02-12T22:53:34.890Z,8.45
2024-02-12T22:56:01.644Z,9.05
2024-02-12T22:58:28.132Z,9.23
2024-02-12T23:00:56.744Z,9.48
2024-02-12T23:03:24.739Z,8.95
2024-02-12T23:05:51.421Z,8.35
2024-02-12T23:08:19.549Z,8.38
2024-02-12T23:10:46.444Z,8.75
2024-02-12T23:13:13.517Z,8.02
2024-02-12T23:15:40.984Z,8.32
2024-02-12T23:18:11.342Z,8.52
2024-02-12T23:20:38.633Z,9.07
2024-02-12T23:23:05.723Z,8.68
2024-02-12T23:25:33.791Z,7.80
2024-02-12T23:28:02.481Z,8.55
2024-02-12T23:30:29.725Z,8.70
2024-02-12T23:32:56.592Z,9.38
2024-02-12T23:35:24.194Z,8.00
2024-02-12T23:37:50.656Z,8.43
2024-02-12T23:40:17.606Z,8.52
2024-02-12T23:42:45.173Z,9.32
2024-02-12T23:45:15.607Z,9.48
2024-02-12T23:47:42.912Z,8.95
2024-02-12T23:50:13.047Z,8.13
2024-02-12T23:52:40.856Z,8.60
2024-02-12T23:55:10.792Z,8.25
2024-02-12T23:57:39.848Z,9.48
